Time;durP1;ratioP1;P1;durP2;ratioP2;P2;SDS_P1;SDS_P2;PMS_P1;PMS_P2;Temp;Humidity;BMP_temperature;BMP_pressure;BME280_temperature;BME280_humidity;BME280_pressure;Samples;Min_cycle;Max_cycle;Signal;HPM_P1;HPM_P2
2023/04/24 00:02:09;;;;;;;0.15;0.15;;;;;;;11.30;100.00;99892.66;10374851;28;20096;-82
2023/04/24 00:07:12;;;;;;;0.77;0.52;;;;;;;11.71;100.00;99892.03;10374932;28;20077;-81
2023/04/24 00:12:14;;;;;;;0.38;0.38;;;;;;;11.52;100.00;99890.19;10373110;28;20057;-82
2023/04/24 00:17:15;;;;;;;0.00;0.00;;;;;;;11.32;100.00;99900.41;10352155;28;20130;-81
2023/04/24 00:22:17;;;;;;;0.50;0.50;;;;;;;11.44;100.00;99903.06;10351026;28;20065;-80
2023/04/24 00:27:19;;;;;;;0.38;0.25;;;;;;;11.46;100.00;99906.53;10367518;28;20117;-81
2023/04/24 00:32:20;;;;;;;1.42;0.93;;;;;;;11.78;100.00;99903.25;10359914;28;20041;-81
2023/04/24 00:37:22;;;;;;;0.80;0.73;;;;;;;11.54;100.00;99914.28;10383249;28;20042;-80
2023/04/24 00:42:24;;;;;;;0.22;0.22;;;;;;;11.33;100.00;99908.16;10348990;28;20048;-81
2023/04/24 00:47:26;;;;;;;0.20;0.20;;;;;;;11.52;100.00;99921.16;10367036;28;20041;-81
2023/04/24 00:52:28;;;;;;;0.10;0.10;;;;;;;11.40;100.00;99912.50;10348809;28;20050;-81
2023/04/24 00:57:30;;;;;;;0.43;0.43;;;;;;;11.47;100.00;99910.81;10368761;28;20420;-81
2023/04/24 01:02:34;;;;;;;0.30;0.30;;;;;;;11.86;100.00;99921.34;10361403;28;20412;-80
2023/04/24 01:07:36;;;;;;;2.53;0.63;;;;;;;11.81;100.00;99915.28;10361227;28;20045;-81
2023/04/24 01:12:38;;;;;;;0.20;0.20;;;;;;;12.18;100.00;99912.91;10378582;28;20049;-81
2023/04/24 01:17:40;;;;;;;0.82;0.32;;;;;;;12.41;100.00;99918.16;10402916;28;20054;-82
2023/04/24 01:22:41;;;;;;;1.52;0.63;;;;;;;12.30;100.00;99910.38;10392189;28;20056;-81
2023/04/24 01:27:43;;;;;;;0.55;0.25;;;;;;;11.99;100.00;99912.00;10342253;28;20048;-81
2023/04/24 01:32:46;;;;;;;0.20;0.20;;;;;;;12.15;100.00;99912.91;10389301;28;20046;-81
2023/04/24 01:37:47;;;;;;;0.68;0.65;;;;;;;12.13;100.00;99912.91;10373511;28;20503;-81
2023/04/24 01:42:50;;;;;;;0.73;0.25;;;;;;;12.06;100.00;99922.34;10372258;28;20064;-81
2023/04/24 01:47:52;;;;;;;0.65;0.60;;;;;;;11.83;100.00;99917.06;10369086;28;20101;-81
2023/04/24 01:52:54;;;;;;;1.00;0.73;;;;;;;12.11;100.00;99922.34;10354314;28;20081;-81
2023/04/24 01:57:56;;;;;;;0.25;0.20;;;;;;;12.16;100.00;99912.03;10353274;28;20129;-81
2023/04/24 02:02:57;;;;;;;0.80;0.73;;;;;;;12.15;100.00;99915.47;10371447;28;20042;-80
2023/04/24 02:08:00;;;;;;;1.23;1.05;;;;;;;11.96;100.00;99910.19;10356672;28;20050;-81
2023/04/24 02:13:02;;;;;;;0.35;0.35;;;;;;;12.23;100.00;99921.53;10366132;28;20048;-82
2023/04/24 02:18:04;;;;;;;1.55;0.77;;;;;;;11.74;100.00;99920.41;10359316;28;20129;-82
2023/04/24 02:23:06;;;;;;;0.20;0.20;;;;;;;11.99;100.00;99923.16;10362056;28;20042;-80
2023/04/24 02:28:07;;;;;;;0.60;0.60;;;;;;;11.74;100.00;99928.16;10358872;28;20053;-81
2023/04/24 02:33:09;;;;;;;1.00;0.50;;;;;;;11.65;100.00;99917.81;10372078;28;20140;-80
2023/04/24 02:38:10;;;;;;;0.57;0.52;;;;;;;11.56;100.00;99903.13;10354747;28;20045;-81
2023/04/24 02:43:12;;;;;;;0.73;0.68;;;;;;;11.66;100.00;99916.94;10354398;28;20141;-81
2023/04/24 02:48:13;;;;;;;0.47;0.47;;;;;;;10.82;100.00;99906.91;10385492;28;20129;-81
2023/04/24 02:53:15;;;;;;;0.50;0.50;;;;;;;11.28;100.00;99912.44;10354014;28;20054;-81
2023/04/24 02:58:17;;;;;;;3.03;1.70;;;;;;;11.48;100.00;99906.53;10361903;28;20054;-80
2023/04/24 03:03:18;;;;;;;1.58;0.85;;;;;;;11.24;100.00;99896.03;10385200;28;20056;-81
2023/04/24 03:08:20;;;;;;;2.53;0.73;;;;;;;11.30;100.00;99896.97;10351763;28;20516;-81
2023/04/24 03:13:22;;;;;;;0.30;0.30;;;;;;;11.55;100.00;99905.72;10384644;28;20045;-80
2023/04/24 03:18:24;;;;;;;3.00;1.13;;;;;;;11.03;100.00;99904.50;10361686;28;20092;-82
2023/04/24 03:23:26;;;;;;;0.38;0.38;;;;;;;11.22;100.00;99914.94;10365121;28;20512;-81
2023/04/24 03:28:28;;;;;;;1.77;0.63;;;;;;;11.25;100.00;99917.53;10355855;28;20121;-82
2023/04/24 03:33:33;;;;;;;1.65;1.17;;;;;;;11.21;100.00;99920.94;10386298;28;20165;-81
2023/04/24 03:38:36;;;;;;;0.65;0.63;;;;;;;11.10;100.00;99926.00;10336246;28;20068;-81
2023/04/24 03:43:57;;;;;;;1.08;0.73;;;;;;;11.27;100.00;99918.44;10353398;28;20050;-82
2023/04/24 03:48:59;;;;;;;1.98;1.23;;;;;;;11.17;100.00;99929.50;10367408;28;20654;-81
2023/04/24 03:54:05;;;;;;;1.38;1.25;;;;;;;11.09;100.00;99932.03;10353461;28;20045;-81
2023/04/24 03:59:10;;;;;;;1.83;1.65;;;;;;;10.85;100.00;99935.25;10349542;28;20073;-82
2023/04/24 04:04:14;;;;;;;0.52;0.43;;;;;;;11.03;100.00;99943.16;10349708;28;20416;-82
2023/04/24 04:09:18;;;;;;;3.15;2.08;;;;;;;11.10;100.00;99947.50;10334120;28;20133;-81
2023/04/24 04:14:19;;;;;;;2.88;1.17;;;;;;;10.76;100.00;99949.75;10349443;28;20050;-81
2023/04/24 04:19:22;;;;;;;1.85;1.65;;;;;;;11.16;100.00;99961.28;10350435;28;20056;-82
2023/04/24 04:24:26;;;;;;;0.88;0.65;;;;;;;10.93;100.00;99956.81;10354679;28;20622;-81
2023/04/24 04:29:28;;;;;;;1.13;0.80;;;;;;;10.98;100.00;99960.31;10353011;28;20515;-81
2023/04/24 04:34:31;;;;;;;2.78;1.48;;;;;;;11.04;100.00;99968.09;10360794;28;20475;-81
2023/04/24 04:39:33;;;;;;;1.48;1.38;;;;;;;11.01;100.00;99969.78;10396068;28;20048;-82
2023/04/24 04:44:38;;;;;;;1.75;1.25;;;;;;;10.97;100.00;99979.19;10365190;28;20050;-81
2023/04/24 04:49:42;;;;;;;1.33;0.77;;;;;;;10.93;100.00;99985.16;10365956;28;20054;-82
2023/04/24 04:54:52;;;;;;;;;;;;;;;10.81;100.00;99988.47;10368274;28;20888;-81
2023/04/24 04:59:56;;;;;;;2.65;1.27;;;;;;;10.69;100.00;99978.91;10393636;28;19925;-81
2023/04/24 05:05:11;;;;;;;0.63;0.57;;;;;;;10.87;100.00;99978.22;10358899;28;20050;-81
2023/04/24 05:10:13;;;;;;;2.38;1.17;;;;;;;10.92;100.00;99986.00;10359210;28;20573;-81
2023/04/24 05:15:14;;;;;;;3.03;1.75;;;;;;;10.49;100.00;99986.44;10380240;28;20038;-81
2023/04/24 05:20:17;;;;;;;3.00;1.27;;;;;;;10.83;100.00;99980.78;10364757;28;20042;-81
2023/04/24 05:25:19;;;;;;;0.98;0.52;;;;;;;10.63;100.00;99986.56;10353434;28;20045;-83
2023/04/24 05:30:31;;;;;;;0.75;0.65;;;;;;;10.53;100.00;99992.47;10359214;28;20052;-81
2023/04/24 05:35:33;;;;;;;1.63;1.38;;;;;;;10.61;100.00;99977.97;10364840;28;20424;-82
2023/04/24 05:40:35;;;;;;;2.35;1.30;;;;;;;10.65;100.00;99984.88;10363889;28;20042;-81
2023/04/24 05:45:37;;;;;;;0.63;0.63;;;;;;;10.95;100.00;99996.34;10359691;28;20084;-81
2023/04/24 05:50:39;;;;;;;3.22;1.85;;;;;;;11.05;100.00;99989.56;10371175;28;20507;-81
2023/04/24 05:55:41;;;;;;;1.40;0.85;;;;;;;11.16;100.00;99984.50;10388425;28;20145;-81
2023/04/24 06:00:44;;;;;;;1.27;0.73;;;;;;;11.10;100.00;99983.59;10356266;28;20050;-82
2023/04/24 06:05:46;;;;;;;0.75;0.75;;;;;;;10.99;100.00;99997.25;10354564;28;20244;-81
2023/04/24 06:10:47;;;;;;;1.67;1.45;;;;;;;11.24;100.00;100008.63;10352982;28;20493;-81
2023/04/24 06:15:52;;;;;;;0.95;0.75;;;;;;;10.75;100.00;100009.91;10353506;28;20428;-82
2023/04/24 06:21:03;;;;;;;0.50;0.50;;;;;;;11.46;100.00;100004.53;10389256;28;20042;-82
2023/04/24 06:26:05;;;;;;;1.00;0.90;;;;;;;12.47;100.00;100036.13;10341880;28;20052;-81
2023/04/24 06:31:06;;;;;;;1.27;0.95;;;;;;;11.70;100.00;99948.78;10357144;28;20057;-82
2023/04/24 06:36:08;;;;;;;0.03;0.03;;;;;;;11.25;100.00;99984.59;10357732;28;20153;-82
2023/04/24 06:41:10;;;;;;;0.75;0.70;;;;;;;10.92;100.00;100001.44;10373873;28;20559;-81
2023/04/24 06:46:11;;;;;;;0.77;0.73;;;;;;;11.20;100.00;99997.44;10356599;28;20056;-81
2023/04/24 06:51:13;;;;;;;1.13;0.80;;;;;;;11.36;100.00;100013.88;10373272;28;20050;-81
2023/04/24 06:56:15;;;;;;;0.15;0.13;;;;;;;11.38;100.00;100022.50;10352778;28;20456;-81
2023/04/24 07:01:16;;;;;;;0.38;0.38;;;;;;;11.27;100.00;100031.88;10355173;28;20489;-81
2023/04/24 07:06:21;;;;;;;0.30;0.20;;;;;;;11.47;100.00;100020.88;10346448;28;20049;-83
2023/04/24 07:11:22;;;;;;;0.63;0.63;;;;;;;11.28;100.00;100031.03;10337427;28;20046;-83
2023/04/24 07:16:24;;;;;;;0.93;0.65;;;;;;;11.53;100.00;100037.25;10347894;28;20128;-81
2023/04/24 07:21:25;;;;;;;0.35;0.35;;;;;;;11.78;100.00;100052.91;10339990;28;20527;-80
2023/04/24 07:26:31;;;;;;;0.82;0.80;;;;;;;11.55;100.00;100050.16;10363055;28;20531;-82
2023/04/24 07:31:32;;;;;;;0.70;0.45;;;;;;;11.46;100.00;100052.66;10344910;28;20069;-81
2023/04/24 07:36:34;;;;;;;0.25;0.25;;;;;;;11.75;100.00;100061.50;10372251;28;20133;-82
2023/04/24 07:41:36;;;;;;;1.08;0.80;;;;;;;11.78;100.00;100077.88;10359621;28;20100;-81
2023/04/24 07:46:37;;;;;;;3.65;1.15;;;;;;;11.64;100.00;100096.69;10383306;28;20124;-83
2023/04/24 07:51:39;;;;;;;0.77;0.50;;;;;;;11.85;100.00;100093.41;10374238;28;20054;-81
2023/04/24 07:56:43;;;;;;;0.50;0.40;;;;;;;11.90;100.00;100109.81;10381071;28;20061;-81
2023/04/24 08:01:44;;;;;;;0.28;0.28;;;;;;;11.90;100.00;100107.22;10380654;28;20080;-81
2023/04/24 08:06:47;;;;;;;0.10;0.10;;;;;;;12.28;100.00;100116.09;10393377;28;20045;-81
2023/04/24 08:11:49;;;;;;;0.00;0.00;;;;;;;11.93;100.00;100129.59;10330271;28;20105;-81
2023/04/24 08:16:54;;;;;;;0.30;0.20;;;;;;;11.73;100.00;100125.13;10381773;28;20046;-81
2023/04/24 08:21:55;;;;;;;0.22;0.22;;;;;;;11.98;100.00;100138.28;10375255;28;20060;-82
2023/04/24 08:26:57;;;;;;;0.47;0.43;;;;;;;12.06;100.00;100148.69;10346429;28;20490;-81
2023/04/24 08:31:59;;;;;;;0.00;0.00;;;;;;;11.79;100.00;100151.84;10367050;28;20081;-82
2023/04/24 08:37:01;;;;;;;0.05;0.05;;;;;;;11.54;100.00;100188.59;10378936;28;20107;-81
2023/04/24 08:42:05;;;;;;;0.05;0.05;;;;;;;11.63;100.00;100187.84;10364876;28;20128;-82
2023/04/24 08:47:08;;;;;;;0.00;0.00;;;;;;;11.43;100.00;100201.38;10338463;28;20858;-82
2023/04/24 08:52:09;;;;;;;0.60;0.28;;;;;;;11.01;100.00;100217.22;10366771;28;20157;-81
2023/04/24 08:57:14;;;;;;;0.00;0.00;;;;;;;11.02;100.00;100235.25;10349059;28;20046;-83
2023/04/24 09:02:16;;;;;;;0.20;0.13;;;;;;;11.41;100.00;100246.94;10352731;28;20037;-82
2023/04/24 09:07:19;;;;;;;1.23;0.73;;;;;;;11.09;100.00;100265.44;10354234;28;20046;-84
2023/04/24 09:12:21;;;;;;;0.45;0.40;;;;;;;11.14;100.00;100268.06;10355670;28;20538;-82
2023/04/24 09:17:26;;;;;;;0.40;0.30;;;;;;;10.81;100.00;100282.22;10369434;28;20132;-82
2023/04/24 09:22:31;;;;;;;1.15;0.40;;;;;;;10.77;100.00;100306.22;10379644;28;20111;-81
2023/04/24 09:27:34;;;;;;;1.05;0.90;;;;;;;10.75;100.00;100313.94;10402450;28;20045;-83
2023/04/24 09:32:35;;;;;;;6.22;0.73;;;;;;;11.06;100.00;100332.41;10376372;28;20084;-82
2023/04/24 09:37:39;;;;;;;0.35;0.30;;;;;;;11.22;100.00;100341.25;10390568;28;20049;-84
2023/04/24 09:42:44;;;;;;;0.40;0.38;;;;;;;10.83;100.00;100346.69;10397294;28;20080;-83
2023/04/24 09:47:51;;;;;;;0.57;0.57;;;;;;;10.97;100.00;100355.47;10386284;28;20076;-84
2023/04/24 09:52:58;;;;;;;0.98;0.40;;;;;;;11.04;100.00;100366.75;10380637;28;20137;-82
2023/04/24 09:58:01;;;;;;;0.00;0.00;;;;;;;10.87;100.00;100387.09;10401537;28;20045;-82
2023/04/24 10:03:05;;;;;;;0.95;0.45;;;;;;;10.18;100.00;100397.88;10376980;28;20053;-83
2023/04/24 10:08:10;;;;;;;1.08;0.20;;;;;;;9.68;100.00;100403.72;10376342;28;20045;-82
2023/04/24 10:13:15;;;;;;;0.57;0.30;;;;;;;10.09;100.00;100432.00;10392104;28;20053;-83
2023/04/24 10:18:17;;;;;;;1.02;0.30;;;;;;;10.28;100.00;100432.38;10396068;28;20586;-81
2023/04/24 10:23:19;;;;;;;0.13;0.13;;;;;;;10.51;100.00;100439.72;10362483;28;20057;-81
2023/04/24 10:28:21;;;;;;;0.10;0.10;;;;;;;10.46;100.00;100455.94;10353093;28;20107;-82
2023/04/24 10:33:23;;;;;;;0.00;0.00;;;;;;;10.83;100.00;100460.06;10397661;28;20072;-82
2023/04/24 10:38:27;;;;;;;0.10;0.10;;;;;;;10.75;100.00;100468.53;10393216;28;20041;-82
2023/04/24 10:43:30;;;;;;;0.38;0.38;;;;;;;11.26;100.00;100481.41;10386331;28;20069;-81
2023/04/24 10:48:32;;;;;;;0.00;0.00;;;;;;;11.86;100.00;100489.19;10390729;28;20074;-84
2023/04/24 10:53:34;;;;;;;0.28;0.20;;;;;;;11.49;100.00;100507.56;10395713;28;20046;-82
2023/04/24 10:58:46;;;;;;;0.47;0.32;;;;;;;11.14;100.00;100525.00;10353126;28;20074;-83
2023/04/24 11:03:55;;;;;;;0.00;0.00;;;;;;;11.61;100.00;100524.94;10383744;28;20049;-83
2023/04/24 11:09:08;;;;;;;0.70;0.40;;;;;;;11.51;100.00;100530.78;10373067;28;20080;-83
2023/04/24 11:14:10;;;;;;;0.35;0.25;;;;;;;11.45;100.00;100543.59;10398855;28;20041;-81
2023/04/24 11:19:15;;;;;;;1.77;0.52;;;;;;;12.00;100.00;100543.59;10384538;28;20084;-82
2023/04/24 11:24:23;;;;;;;0.60;0.17;;;;;;;11.83;100.00;100551.97;10394183;28;20050;-83
2023/04/24 11:29:47;;;;;;;0.00;0.00;;;;;;;11.78;100.00;100570.78;10391651;28;20041;-83
2023/04/24 11:34:54;;;;;;;6.47;0.52;;;;;;;11.48;100.00;100569.44;10358446;28;20384;-82
2023/04/24 11:39:57;;;;;;;0.00;0.00;;;;;;;11.80;100.00;100566.53;10397341;28;20073;-82
2023/04/24 11:44:59;;;;;;;0.00;0.00;;;;;;;11.86;100.00;100582.09;10392965;28;20516;-83
2023/04/24 11:50:04;;;;;;;0.10;0.10;;;;;;;12.19;100.00;100591.22;10383119;28;20044;-83
2023/04/24 11:55:15;;;;;;;0.28;0.28;;;;;;;12.37;100.00;100591.47;10382387;28;20046;-82
2023/04/24 12:00:18;;;;;;;1.48;0.30;;;;;;;12.40;100.00;100600.13;10379571;28;20472;-83
2023/04/24 12:05:25;;;;;;;0.38;0.17;;;;;;;12.30;100.00;100614.59;10376347;28;20052;-82
2023/04/24 12:10:30;;;;;;;0.00;0.00;;;;;;;12.07;100.00;100622.88;10353663;28;20068;-81
2023/04/24 12:15:31;;;;;;;1.23;0.25;;;;;;;11.78;100.00;100617.25;10374077;28;20341;-82
2023/04/24 12:20:33;;;;;;;0.00;0.00;;;;;;;11.48;100.00;100627.06;10378239;28;20562;-82
2023/04/24 12:25:34;;;;;;;0.17;0.17;;;;;;;11.79;100.00;100642.22;10370120;28;20046;-82
2023/04/24 12:30:48;;;;;;;0.25;0.20;;;;;;;11.34;100.00;100665.53;10391739;28;20053;-82
2023/04/24 12:35:53;;;;;;;0.00;0.00;;;;;;;12.04;100.00;100659.00;10374134;28;20046;-81
2023/04/24 12:41:06;;;;;;;0.10;0.10;;;;;;;12.11;100.00;100663.41;10372234;28;20042;-81
2023/04/24 12:46:08;;;;;;;0.20;0.10;;;;;;;11.08;100.00;100677.91;10391394;28;20046;-81
2023/04/24 12:51:10;;;;;;;11.13;0.28;;;;;;;10.83;100.00;100697.16;10371844;28;20060;-81
2023/04/24 12:56:12;;;;;;;0.17;0.17;;;;;;;11.20;100.00;100685.00;10379847;28;20128;-82
2023/04/24 13:01:13;;;;;;;0.00;0.00;;;;;;;12.06;100.00;100677.97;10405279;28;20133;-84
2023/04/24 13:06:15;;;;;;;0.00;0.00;;;;;;;12.42;100.00;100691.41;10381567;28;20439;-82
2023/04/24 13:11:16;;;;;;;0.00;0.00;;;;;;;11.74;100.00;100692.03;10378166;28;20061;-83
2023/04/24 13:16:18;;;;;;;0.00;0.00;;;;;;;11.91;100.00;100686.28;10381717;28;20072;-81
2023/04/24 13:21:19;;;;;;;0.00;0.00;;;;;;;12.32;100.00;100691.28;10377427;28;20048;-83
2023/04/24 13:26:21;;;;;;;0.00;0.00;;;;;;;12.48;100.00;100686.34;10374184;28;20029;-81
2023/04/24 13:31:22;;;;;;;0.08;0.08;;;;;;;11.66;100.00;100698.75;10368718;28;20130;-82
2023/04/24 13:36:25;;;;;;;0.10;0.10;;;;;;;11.66;100.00;100698.75;10382650;28;20041;-81
2023/04/24 13:41:26;;;;;;;0.75;0.28;;;;;;;11.82;100.00;100704.19;10374797;28;20037;-81
2023/04/24 13:46:28;;;;;;;0.00;0.00;;;;;;;12.08;100.00;100711.56;10353920;28;20538;-82
2023/04/24 13:51:30;;;;;;;0.00;0.00;;;;;;;12.46;100.00;100712.16;10364276;28;20657;-83
2023/04/24 13:56:31;;;;;;;0.00;0.00;;;;;;;12.81;100.00;100705.75;10391462;28;20081;-82
2023/04/24 14:01:33;;;;;;;0.88;0.00;;;;;;;12.19;100.00;100712.59;10372156;28;20133;-84
2023/04/24 14:06:35;;;;;;;0.22;0.17;;;;;;;11.98;100.00;100719.16;10376751;28;20092;-82
2023/04/24 14:11:36;;;;;;;0.75;0.63;;;;;;;11.57;100.00;100714.09;10348831;28;20124;-82
2023/04/24 14:16:38;;;;;;;0.00;0.00;;;;;;;11.44;100.00;100725.88;10374599;28;20449;-82
2023/04/24 14:21:39;;;;;;;0.00;0.00;;;;;;;11.54;100.00;100737.25;10388532;28;20073;-81
2023/04/24 14:26:41;;;;;;;0.00;0.00;;;;;;;10.80;100.00;100752.03;10384036;28;20125;-82
2023/04/24 14:31:43;;;;;;;0.00;0.00;;;;;;;10.87;100.00;100755.63;10383345;28;20041;-81
2023/04/24 14:36:44;;;;;;;0.25;0.15;;;;;;;11.10;100.00;100759.59;10379071;28;20058;-82
2023/04/24 14:41:46;;;;;;;0.00;0.00;;;;;;;11.28;100.00;100750.50;10344070;28;20089;-81
2023/04/24 14:46:48;;;;;;;0.30;0.30;;;;;;;12.37;100.00;100740.44;10348071;28;20085;-80
2023/04/24 14:51:50;;;;;;;1.85;0.80;;;;;;;11.84;100.00;100748.97;10377038;28;20050;-80
2023/04/24 14:56:51;;;;;;;1.63;0.68;;;;;;;11.86;100.00;100755.06;10365240;28;20077;-80
2023/04/24 15:01:57;;;;;;;0.08;0.08;;;;;;;11.74;100.00;100759.13;10349706;28;20137;-82
2023/04/24 15:07:15;;;;;;;2.35;1.10;;;;;;;12.16;100.00;100751.31;10349794;28;20030;-82
2023/04/24 15:12:17;;;;;;;0.00;0.00;;;;;;;12.35;100.00;100755.06;10354871;28;20034;-81
2023/04/24 15:17:18;;;;;;;0.15;0.08;;;;;;;12.18;100.00;100753.06;10333604;28;20096;-82
2023/04/24 15:22:20;;;;;;;0.00;0.00;;;;;;;12.26;100.00;100763.50;10344060;28;20073;-81
2023/04/24 15:27:21;;;;;;;0.10;0.10;;;;;;;12.05;100.00;100759.72;10329045;28;20160;-82
2023/04/24 15:32:23;;;;;;;0.10;0.05;;;;;;;12.49;100.00;100760.44;10370012;28;20535;-80
2023/04/24 15:37:24;;;;;;;0.00;0.00;;;;;;;12.33;100.00;100773.09;10351299;28;20046;-81
2023/04/24 15:42:26;;;;;;;1.27;0.35;;;;;;;12.36;100.00;100780.91;10376452;28;20050;-82
2023/04/24 15:47:28;;;;;;;0.10;0.00;;;;;;;12.85;100.00;100775.63;10370437;28;20050;-83
2023/04/24 15:52:29;;;;;;;0.57;0.57;;;;;;;12.21;100.00;100780.66;10367865;28;20469;-81
2023/04/24 15:57:31;;;;;;;0.05;0.05;;;;;;;12.04;100.00;100788.09;10367879;28;20077;-82
2023/04/24 16:02:32;;;;;;;1.00;0.40;;;;;;;12.35;100.00;100798.97;10349808;28;20404;-80
2023/04/24 16:07:35;;;;;;;0.28;0.15;;;;;;;12.25;100.00;100802.25;10377122;28;20042;-81
2023/04/24 16:12:36;;;;;;;0.20;0.20;;;;;;;12.80;100.00;100797.09;10347902;28;20065;-81
2023/04/24 16:17:38;;;;;;;0.20;0.10;;;;;;;12.58;100.00;100801.94;10349692;28;20108;-81
2023/04/24 16:22:40;;;;;;;0.57;0.57;;;;;;;12.18;100.00;100804.72;10342094;28;20038;-81
2023/04/24 16:27:42;;;;;;;2.92;0.17;;;;;;;11.40;100.00;100830.72;10342488;28;20050;-82
2023/04/24 16:32:43;;;;;;;1.98;0.65;;;;;;;11.13;100.00;100830.13;10348868;28;20508;-82
2023/04/24 16:37:45;;;;;;;0.28;0.15;;;;;;;10.87;100.00;100832.97;10366939;28;20413;-81
2023/04/24 16:42:47;;;;;;;0.00;0.00;;;;;;;11.50;100.00;100836.06;10365177;28;20121;-81
2023/04/24 16:47:49;;;;;;;0.45;0.45;;;;;;;11.75;100.00;100822.81;10348429;28;20800;-81
2023/04/24 16:52:50;;;;;;;13.43;0.57;;;;;;;11.68;100.00;100836.44;10332430;28;20054;-81
2023/04/24 16:57:52;;;;;;;0.73;0.28;;;;;;;11.41;100.00;100827.31;10349241;28;20053;-82
2023/04/24 17:02:53;;;;;;;0.98;0.75;;;;;;;11.85;100.00;100823.88;10368132;28;20050;-81
2023/04/24 17:07:55;;;;;;;1.75;1.40;;;;;;;11.58;100.00;100834.50;10368383;28;20057;-81
2023/04/24 17:12:58;;;;;;;0.75;0.63;;;;;;;11.63;100.00;100832.91;10323571;28;20203;-81
2023/04/24 17:18:01;;;;;;;0.20;0.15;;;;;;;11.61;100.00;100837.16;10349602;28;20053;-82
2023/04/24 17:23:02;;;;;;;0.10;0.08;;;;;;;11.80;100.00;100829.81;10326685;28;20275;-81
2023/04/24 17:28:23;;;;;;;0.00;0.00;;;;;;;11.89;100.00;100835.13;10349428;28;20046;-81
2023/04/24 17:33:26;;;;;;;0.03;0.03;;;;;;;11.91;100.00;100829.13;10349479;28;20145;-81
2023/04/24 17:38:28;;;;;;;0.32;0.32;;;;;;;11.66;100.00;100843.28;10349499;28;20050;-81
2023/04/24 17:43:30;;;;;;;0.10;0.10;;;;;;;11.20;100.00;100842.31;10375270;28;20122;-82
2023/04/24 17:48:31;;;;;;;0.40;0.40;;;;;;;11.25;100.00;100845.84;10356769;28;20038;-81
2023/04/24 17:53:33;;;;;;;0.00;0.00;;;;;;;11.35;100.00;100847.81;10372737;28;20156;-81
2023/04/24 17:58:34;;;;;;;0.00;0.00;;;;;;;11.34;100.00;100856.38;10355739;28;20065;-81
2023/04/24 18:03:37;;;;;;;3.53;0.47;;;;;;;10.99;100.00;100848.69;10356196;28;20064;-81
2023/04/24 18:08:38;;;;;;;0.00;0.00;;;;;;;10.74;100.00;100858.44;10368450;28;20049;-82
2023/04/24 18:13:40;;;;;;;0.10;0.10;;;;;;;10.61;100.00;100861.56;10385803;28;20145;-81
2023/04/24 18:18:41;;;;;;;0.10;0.10;;;;;;;10.67;100.00;100861.69;10389004;28;20042;-80
2023/04/24 18:23:43;;;;;;;2.20;0.32;;;;;;;10.46;100.00;100873.19;10373541;28;20129;-81
2023/04/24 18:28:44;;;;;;;0.98;0.57;;;;;;;10.24;100.00;100882.03;10349976;28;20189;-80
2023/04/24 18:33:47;;;;;;;0.43;0.20;;;;;;;10.23;100.00;100884.56;10354259;28;20056;-81
2023/04/24 18:38:49;;;;;;;1.75;0.30;;;;;;;10.01;100.00;100894.28;10352933;28;20061;-80
2023/04/24 18:43:51;;;;;;;0.10;0.10;;;;;;;10.04;100.00;100896.94;10370971;28;20045;-80
2023/04/24 18:48:52;;;;;;;0.30;0.20;;;;;;;9.91;100.00;100902.56;10381986;28;20069;-80
2023/04/24 18:53:54;;;;;;;0.77;0.52;;;;;;;9.85;100.00;100903.25;10379947;28;20636;-81
2023/04/24 18:58:55;;;;;;;0.88;0.55;;;;;;;9.94;100.00;100912.97;10387919;28;20072;-80
2023/04/24 19:03:57;;;;;;;4.45;1.83;;;;;;;10.11;100.00;100908.28;10368802;28;20052;-80
2023/04/24 19:08:59;;;;;;;0.00;0.00;;;;;;;10.24;100.00;100910.34;10347656;28;20042;-82
2023/04/24 19:14:03;;;;;;;0.13;0.13;;;;;;;9.73;100.00;100924.34;10371778;28;20508;-81
2023/04/24 19:19:04;;;;;;;2.55;0.47;;;;;;;9.80;100.00;100926.28;10369282;28;20038;-81
2023/04/24 19:24:08;;;;;;;0.05;0.05;;;;;;;9.77;100.00;100933.91;10369043;28;20072;-81
2023/04/24 19:29:10;;;;;;;0.38;0.30;;;;;;;9.66;100.00;100937.84;10353292;28;20080;-81
2023/04/24 19:34:11;;;;;;;0.28;0.15;;;;;;;9.59;100.00;100938.50;10370948;28;20124;-81
2023/04/24 19:39:13;;;;;;;0.20;0.20;;;;;;;9.56;100.00;100948.72;10385473;28;20049;-80
2023/04/24 19:44:16;;;;;;;4.57;2.38;;;;;;;9.48;100.00;100949.34;10350769;28;20069;-81
2023/04/24 19:49:17;;;;;;;0.68;0.57;;;;;;;9.45;100.00;100948.38;10350256;28;20463;-81
2023/04/24 19:54:19;;;;;;;11.10;0.57;;;;;;;9.40;100.00;100948.22;10370279;28;20574;-83
2023/04/24 19:59:20;;;;;;;0.32;0.08;;;;;;;9.45;100.00;100949.25;10375667;28;20071;-81
2023/04/24 20:04:22;;;;;;;2.00;0.75;;;;;;;9.47;100.00;100949.28;10389939;28;20080;-80
2023/04/24 20:09:24;;;;;;;0.52;0.20;;;;;;;9.36;100.00;100946.38;10346958;28;20552;-80
2023/04/24 20:14:25;;;;;;;0.20;0.20;;;;;;;9.34;100.00;100946.34;10385738;28;20141;-80
2023/04/24 20:19:27;;;;;;;0.77;0.40;;;;;;;9.45;100.00;100943.22;10380176;28;20149;-81
2023/04/24 20:24:28;;;;;;;0.75;0.35;;;;;;;9.53;100.00;100942.63;10338419;28;20100;-81
2023/04/24 20:29:30;;;;;;;0.93;0.57;;;;;;;9.34;100.00;100940.31;10370437;28;20121;-81
2023/04/24 20:34:31;;;;;;;0.95;0.57;;;;;;;9.45;100.00;100938.94;10348418;28;20480;-81
2023/04/24 20:39:33;;;;;;;0.30;0.00;;;;;;;9.31;100.00;100946.22;10364677;28;20073;-80
2023/04/24 20:44:34;;;;;;;1.88;1.20;;;;;;;9.34;100.00;100945.47;10345359;28;20050;-81
2023/04/24 20:49:36;;;;;;;0.10;0.10;;;;;;;9.23;100.00;100946.81;10352322;28;20069;-81
2023/04/24 20:54:37;;;;;;;0.35;0.30;;;;;;;8.94;100.00;100946.75;10366935;28;20133;-81
2023/04/24 20:59:39;;;;;;;0.10;0.10;;;;;;;9.00;100.00;100934.09;10355023;28;20109;-81
2023/04/24 21:04:40;;;;;;;0.40;0.40;;;;;;;8.81;100.00;100938.63;10374673;28;20153;-81
2023/04/24 21:09:42;;;;;;;0.17;0.17;;;;;;;8.89;100.00;100939.75;10347822;28;20045;-81
2023/04/24 21:14:43;;;;;;;1.35;1.10;;;;;;;8.77;100.00;100944.47;10374629;28;20125;-81
2023/04/24 21:19:45;;;;;;;0.08;0.05;;;;;;;8.87;100.00;100948.22;10390640;28;20050;-82
2023/04/24 21:24:46;;;;;;;1.98;0.52;;;;;;;8.87;100.00;100946.53;10374280;28;20062;-80
2023/04/24 21:29:47;;;;;;;0.00;0.00;;;;;;;8.96;100.00;100937.38;10360232;28;20120;-80
2023/04/24 21:34:50;;;;;;;0.17;0.17;;;;;;;8.80;100.00;100944.59;10375880;28;20045;-81
2023/04/24 21:39:51;;;;;;;3.85;2.83;;;;;;;8.81;100.00;100938.63;10376815;28;20105;-80
2023/04/24 21:44:52;;;;;;;0.00;0.00;;;;;;;8.86;100.00;100947.34;10360657;28;20651;-80
2023/04/24 21:49:54;;;;;;;0.30;0.30;;;;;;;8.88;100.00;100944.81;10378241;28;20679;-81
2023/04/24 21:54:55;;;;;;;0.22;0.22;;;;;;;8.83;100.00;100942.09;10358228;28;20415;-81
2023/04/24 21:59:57;;;;;;;2.17;0.73;;;;;;;8.74;100.00;100946.94;10390291;28;20057;-81
2023/04/24 22:05:03;;;;;;;0.00;0.00;;;;;;;8.56;100.00;100945.47;10378502;28;20129;-82
2023/04/24 22:10:05;;;;;;;38.10;0.77;;;;;;;8.53;100.00;100950.50;10363761;28;20042;-82
2023/04/24 22:15:08;;;;;;;0.43;0.43;;;;;;;8.81;100.00;100959.19;10375455;28;20050;-81
2023/04/24 22:20:10;;;;;;;3.33;1.25;;;;;;;8.94;100.00;100946.75;10374102;28;20471;-81
2023/04/24 22:25:11;;;;;;;2.20;0.47;;;;;;;8.65;100.00;100951.75;10356465;28;20073;-81
2023/04/24 22:30:13;;;;;;;0.05;0.05;;;;;;;8.81;100.00;100953.16;10354769;28;20053;-82
2023/04/24 22:35:15;;;;;;;0.52;0.30;;;;;;;8.99;100.00;100963.16;10339672;28;20145;-81
2023/04/24 22:40:16;;;;;;;2.05;1.45;;;;;;;8.95;100.00;100957.06;10390194;28;20054;-81
2023/04/24 22:45:18;;;;;;;0.00;0.00;;;;;;;9.01;100.00;100962.38;10382145;28;20080;-81
2023/04/24 22:50:19;;;;;;;0.20;0.20;;;;;;;9.08;100.00;100967.75;10359167;28;20191;-81
2023/04/24 22:55:21;;;;;;;0.00;0.00;;;;;;;9.26;100.00;100973.50;10359206;28;20037;-81
2023/04/24 23:00:23;;;;;;;0.05;0.05;;;;;;;8.94;100.00;100964.72;10375565;28;20124;-81